Time;durP1;ratioP1;P1;durP2;ratioP2;P2;SDS_P1;SDS_P2;PMS_P1;PMS_P2;Temp;Humidity;BMP_temperature;BMP_pressure;BME280_temperature;BME280_humidity;BME280_pressure;Samples;Min_cycle;Max_cycle;Signal;HPM_P1;HPM_P2
2020/12/27 00:00:18;;;;;;;5.10;4.70;;;5.10;99.90;;;;;;4978120;28;20454;-64
2020/12/27 00:02:45;;;;;;;5.03;4.53;;;5.10;99.90;;;;;;4977337;28;20502;-64
2020/12/27 00:05:11;;;;;;;4.93;4.50;;;5.10;99.90;;;;;;4976690;28;20458;-64
2020/12/27 00:07:38;;;;;;;5.27;4.87;;;5.10;99.90;;;;;;4980062;28;20485;-65
2020/12/27 00:10:05;;;;;;;4.80;4.50;;;5.00;99.90;;;;;;4995740;28;20462;-65
2020/12/27 00:12:32;;;;;;;4.47;4.17;;;5.00;99.90;;;;;;4997231;28;20535;-64
2020/12/27 00:14:58;;;;;;;5.33;4.93;;;5.00;99.90;;;;;;4996916;28;20571;-65
2020/12/27 00:17:25;;;;;;;5.53;5.03;;;5.00;99.90;;;;;;4996753;28;20439;-65
2020/12/27 00:19:52;;;;;;;5.07;4.67;;;5.10;99.90;;;;;;4997022;28;20455;-64
2020/12/27 00:22:20;;;;;;;4.90;4.50;;;5.10;99.90;;;;;;4996638;28;20547;-64
2020/12/27 00:24:47;;;;;;;5.10;4.70;;;5.20;99.90;;;;;;4994690;28;20448;-64
2020/12/27 00:27:13;;;;;;;4.50;4.10;;;5.20;99.90;;;;;;4992528;28;20443;-64
2020/12/27 00:29:40;;;;;;;6.20;4.37;;;5.20;99.90;;;;;;4994432;28;20431;-64
2020/12/27 00:32:06;;;;;;;5.20;4.70;;;5.80;99.90;;;;;;4988208;28;20489;-64
2020/12/27 00:34:33;;;;;;;5.03;4.40;;;5.10;99.90;;;;;;4976330;28;20491;-64
2020/12/27 00:37:01;;;;;;;5.20;4.80;;;5.40;99.90;;;;;;4974854;28;20491;-64
2020/12/27 00:39:27;;;;;;;4.90;4.60;;;5.20;99.90;;;;;;4976344;28;20455;-64
2020/12/27 00:41:58;;;;;;;5.40;5.00;;;4.90;99.90;;;;;;4964911;28;20479;-63
2020/12/27 00:44:24;;;;;;;5.73;5.23;;;5.10;99.90;;;;;;4966656;28;20456;-64
2020/12/27 00:46:51;;;;;;;5.43;5.03;;;4.80;99.90;;;;;;4974891;28;20455;-64
2020/12/27 00:49:18;;;;;;;5.73;5.33;;;4.70;99.90;;;;;;4975601;28;20451;-63
2020/12/27 00:51:44;;;;;;;5.13;4.73;;;4.90;99.90;;;;;;4977123;28;20502;-64
2020/12/27 00:54:12;;;;;;;5.50;5.10;;;4.80;99.90;;;;;;4978902;28;20479;-64
2020/12/27 00:56:39;;;;;;;5.13;4.20;;;4.70;99.90;;;;;;4978347;28;20514;-64
2020/12/27 00:59:06;;;;;;;4.70;4.33;;;4.80;99.90;;;;;;4975035;28;20458;-64
2020/12/27 01:01:32;;;;;;;4.93;4.50;;;5.00;99.90;;;;;;4975463;28;20525;-64
2020/12/27 01:03:59;;;;;;;5.00;4.60;;;4.80;99.90;;;;;;4974802;28;20463;-65
2020/12/27 01:06:26;;;;;;;5.33;4.93;;;4.70;99.90;;;;;;4974968;28;20469;-65
2020/12/27 01:08:52;;;;;;;5.00;4.60;;;4.70;99.90;;;;;;4974724;28;20807;-64
2020/12/27 01:11:19;;;;;;;6.37;5.87;;;4.60;99.90;;;;;;4974401;28;20550;-65
2020/12/27 01:13:46;;;;;;;6.27;5.77;;;4.40;99.90;;;;;;4974636;28;20810;-64
2020/12/27 01:16:13;;;;;;;7.67;6.53;;;4.30;99.90;;;;;;4974959;28;20447;-64
2020/12/27 01:18:40;;;;;;;7.43;6.90;;;4.20;99.90;;;;;;4975129;28;21001;-65
2020/12/27 01:21:06;;;;;;;6.70;6.20;;;4.10;99.90;;;;;;4974380;28;20959;-64
2020/12/27 01:23:32;;;;;;;7.20;6.60;;;4.20;99.90;;;;;;4974926;28;20455;-64
2020/12/27 01:25:58;;;;;;;8.73;8.03;;;4.10;99.90;;;;;;4974386;28;20451;-64
2020/12/27 01:28:26;;;;;;;8.90;7.87;;;3.90;99.90;;;;;;4975033;28;20461;-64
2020/12/27 01:30:52;;;;;;;8.70;7.97;;;4.00;99.90;;;;;;4974686;28;20451;-64
2020/12/27 01:33:18;;;;;;;9.30;8.40;;;4.00;99.90;;;;;;4974491;28;20487;-65
2020/12/27 01:35:45;;;;;;;9.73;8.90;;;4.20;99.90;;;;;;4973068;28;20483;-65
2020/12/27 01:38:11;;;;;;;10.77;9.90;;;4.00;99.90;;;;;;4975048;28;20456;-64
2020/12/27 01:40:38;;;;;;;11.30;8.80;;;3.80;99.90;;;;;;4973178;28;20455;-65
2020/12/27 01:43:04;;;;;;;9.90;9.00;;;3.80;99.90;;;;;;4969174;28;21060;-64
2020/12/27 01:45:31;;;;;;;9.67;8.87;;;3.80;99.90;;;;;;4973857;28;20447;-64
2020/12/27 01:47:58;;;;;;;9.50;8.70;;;3.80;99.90;;;;;;4974534;28;20942;-64
2020/12/27 01:50:25;;;;;;;8.60;8.00;;;3.80;99.90;;;;;;4974211;28;20459;-64
2020/12/27 01:52:51;;;;;;;7.27;6.77;;;3.80;99.90;;;;;;4973635;28;20542;-65
2020/12/27 01:55:18;;;;;;;9.30;8.60;;;3.90;99.90;;;;;;4973582;28;20508;-64
2020/12/27 01:58:11;;;;;;;8.60;7.87;;;3.80;99.90;;;;;;4974221;28;20451;-64
2020/12/27 02:00:39;;;;;;;8.00;7.30;;;3.80;99.90;;;;;;4954923;28;20459;-64
2020/12/27 02:03:06;;;;;;;8.00;7.20;;;3.80;99.90;;;;;;4973830;28;20482;-64
2020/12/27 02:05:32;;;;;;;7.23;6.60;;;3.70;99.90;;;;;;4973676;28;20451;-65
2020/12/27 02:07:59;;;;;;;7.60;7.00;;;4.00;99.90;;;;;;4973466;28;20533;-64
2020/12/27 02:10:26;;;;;;;7.40;6.83;;;3.80;99.90;;;;;;4974182;28;20462;-63
2020/12/27 02:12:52;;;;;;;8.00;7.20;;;3.80;99.90;;;;;;4973021;28;20475;-64
2020/12/27 02:15:18;;;;;;;7.40;6.83;;;3.80;99.90;;;;;;4972910;28;20494;-65
2020/12/27 02:17:45;;;;;;;7.17;6.60;;;3.70;99.90;;;;;;4973782;28;20462;-65
2020/12/27 02:20:12;;;;;;;7.20;6.50;;;3.80;99.90;;;;;;4973327;28;20522;-65
2020/12/27 02:22:40;;;;;;;7.40;6.70;;;3.70;99.90;;;;;;4973727;28;20471;-64
2020/12/27 02:25:07;;;;;;;7.20;6.60;;;3.80;99.90;;;;;;4973281;28;20872;-64
2020/12/27 02:27:34;;;;;;;6.63;6.03;;;3.80;99.90;;;;;;4973920;28;20486;-64
2020/12/27 02:30:00;;;;;;;6.50;6.00;;;3.80;99.90;;;;;;4973203;28;20511;-64
2020/12/27 02:32:26;;;;;;;6.83;6.23;;;3.80;99.90;;;;;;4973820;28;20483;-65
2020/12/27 02:34:53;;;;;;;5.97;5.47;;;3.80;99.90;;;;;;4974379;28;20483;-65
2020/12/27 02:37:19;;;;;;;6.90;6.30;;;4.10;99.90;;;;;;4974507;28;20455;-63
2020/12/27 02:39:46;;;;;;;6.30;5.80;;;3.90;99.90;;;;;;4974011;28;20476;-64
2020/12/27 02:42:13;;;;;;;6.03;5.53;;;3.90;99.90;;;;;;4972715;28;20471;-64
2020/12/27 02:44:46;;;;;;;5.30;4.80;;;3.90;99.90;;;;;;4972851;28;20452;-64
2020/12/27 02:47:12;;;;;;;5.90;5.40;;;3.90;99.90;;;;;;4973322;28;20455;-64
2020/12/27 02:49:39;;;;;;;5.47;4.93;;;4.30;99.90;;;;;;4973130;28;20456;-64
2020/12/27 02:52:05;;;;;;;5.20;4.47;;;4.00;99.90;;;;;;4972837;28;20475;-65
2020/12/27 02:54:31;;;;;;;4.40;4.10;;;4.10;99.90;;;;;;4972471;28;20862;-64
2020/12/27 02:56:57;;;;;;;4.13;3.83;;;4.00;99.90;;;;;;4973437;28;20897;-64
2020/12/27 02:59:25;;;;;;;4.53;4.23;;;4.20;99.90;;;;;;4972921;28;20474;-65
2020/12/27 03:01:51;;;;;;;6.20;4.80;;;4.10;99.90;;;;;;4972886;28;20475;-64
2020/12/27 03:04:17;;;;;;;4.20;3.90;;;4.10;99.90;;;;;;4972756;28;20448;-64
2020/12/27 03:06:43;;;;;;;4.40;4.10;;;4.30;99.90;;;;;;4973378;28;20458;-65
2020/12/27 03:09:10;;;;;;;4.50;4.20;;;4.30;99.90;;;;;;4972894;28;20951;-65
2020/12/27 03:11:36;;;;;;;4.03;3.83;;;4.30;99.90;;;;;;4972528;28;20871;-64
2020/12/27 03:14:03;;;;;;;3.53;3.23;;;4.50;99.90;;;;;;4972792;28;20501;-64
2020/12/27 03:16:30;;;;;;;4.47;4.07;;;4.90;99.90;;;;;;4973633;28;20562;-64
2020/12/27 03:18:56;;;;;;;4.00;3.67;;;4.30;99.90;;;;;;4973340;28;20507;-64
2020/12/27 03:21:23;;;;;;;4.23;3.93;;;4.30;99.90;;;;;;4973852;28;20472;-65
2020/12/27 03:23:49;;;;;;;4.10;3.80;;;4.30;99.90;;;;;;4975500;28;20455;-65
2020/12/27 03:26:15;;;;;;;4.00;3.70;;;4.30;99.90;;;;;;4975724;28;20498;-65
2020/12/27 03:28:42;;;;;;;4.00;3.60;;;4.40;99.90;;;;;;4975672;28;20461;-65
2020/12/27 03:31:08;;;;;;;4.10;3.80;;;4.60;99.90;;;;;;4985027;28;20815;-64
2020/12/27 03:33:35;;;;;;;4.70;4.30;;;4.40;99.90;;;;;;4991248;28;20503;-64
2020/12/27 03:36:01;;;;;;;3.60;3.20;;;4.40;99.90;;;;;;4982998;28;20907;-64
2020/12/27 03:38:28;;;;;;;4.23;3.93;;;4.60;99.90;;;;;;4973087;28;20455;-65
2020/12/27 03:40:54;;;;;;;4.03;3.73;;;4.80;99.90;;;;;;4973246;28;20459;-64
2020/12/27 03:43:20;;;;;;;3.50;3.20;;;5.00;99.90;;;;;;4972941;28;20467;-64
2020/12/27 03:45:47;;;;;;;4.30;4.00;;;4.80;99.90;;;;;;4972392;28;20973;-64
2020/12/27 03:48:13;;;;;;;4.30;4.00;;;4.50;99.90;;;;;;4972645;28;20451;-64
2020/12/27 03:50:40;;;;;;;4.60;4.20;;;4.50;99.90;;;;;;4972809;28;20551;-64
2020/12/27 03:53:06;;;;;;;4.20;3.90;;;4.50;99.90;;;;;;4972734;28;20838;-65
2020/12/27 03:55:33;;;;;;;3.90;3.30;;;4.40;99.90;;;;;;4972466;28;21013;-64
2020/12/27 03:57:59;;;;;;;4.70;3.60;;;4.40;99.90;;;;;;4972240;28;20455;-65
2020/12/27 04:00:29;;;;;;;3.90;3.60;;;4.40;99.90;;;;;;4972795;28;20448;-63
2020/12/27 04:02:55;;;;;;;4.07;3.77;;;4.40;99.90;;;;;;4972638;28;20845;-65
2020/12/27 04:05:21;;;;;;;4.27;3.93;;;4.40;99.90;;;;;;4974596;28;20505;-65
2020/12/27 04:07:48;;;;;;;4.43;4.13;;;4.30;99.90;;;;;;4976020;28;20459;-65
2020/12/27 04:10:15;;;;;;;4.73;4.43;;;4.20;99.90;;;;;;4976596;28;20470;-65
2020/12/27 04:12:42;;;;;;;5.27;4.30;;;4.20;99.90;;;;;;4975754;28;20478;-65
2020/12/27 04:15:08;;;;;;;4.20;3.90;;;4.20;99.90;;;;;;4982173;28;20493;-64
2020/12/27 04:17:35;;;;;;;5.20;4.77;;;4.20;99.90;;;;;;4977692;28;20822;-65
2020/12/27 04:20:01;;;;;;;5.20;4.80;;;4.20;99.90;;;;;;4976142;28;20451;-65
2020/12/27 04:22:28;;;;;;;5.07;3.87;;;4.20;99.90;;;;;;4975453;28;20861;-64
2020/12/27 04:24:55;;;;;;;4.23;3.93;;;4.20;99.90;;;;;;4975597;28;20448;-65
2020/12/27 04:27:21;;;;;;;4.60;4.20;;;4.20;99.90;;;;;;4975414;28;20874;-64
2020/12/27 04:29:47;;;;;;;4.43;4.13;;;4.10;99.90;;;;;;4975764;28;20939;-65
2020/12/27 04:32:14;;;;;;;5.13;4.70;;;4.10;99.90;;;;;;4975324;28;20487;-64
2020/12/27 04:34:40;;;;;;;4.60;4.30;;;4.10;99.90;;;;;;4974789;28;20487;-64
2020/12/27 04:37:07;;;;;;;5.07;4.70;;;4.20;99.90;;;;;;4975809;28;20951;-65
2020/12/27 04:39:33;;;;;;;4.67;4.37;;;4.20;99.90;;;;;;4975617;28;20830;-65
2020/12/27 04:42:01;;;;;;;4.43;4.13;;;4.20;99.90;;;;;;4975075;28;20526;-65
2020/12/27 04:44:27;;;;;;;4.67;4.17;;;4.20;99.90;;;;;;4975189;28;20452;-65
2020/12/27 04:46:54;;;;;;;4.07;3.77;;;4.10;99.90;;;;;;4976052;28;20459;-65
2020/12/27 04:49:21;;;;;;;4.30;4.00;;;4.10;99.90;;;;;;4975692;28;20447;-65
2020/12/27 04:51:48;;;;;;;4.53;4.13;;;4.10;99.90;;;;;;4975449;28;20468;-65
2020/12/27 04:54:15;;;;;;;4.77;4.40;;;4.10;99.90;;;;;;4975255;28;20455;-65
2020/12/27 04:56:41;;;;;;;6.00;4.20;;;4.10;99.90;;;;;;4975482;28;20448;-65
2020/12/27 04:59:09;;;;;;;4.60;4.30;;;4.30;99.90;;;;;;4975696;28;20455;-65
2020/12/27 05:01:38;;;;;;;4.83;4.47;;;4.10;99.90;;;;;;4975609;28;20471;-65
2020/12/27 05:04:04;;;;;;;5.30;4.90;;;4.10;99.90;;;;;;4974433;28;20824;-65
2020/12/27 05:06:31;;;;;;;6.27;5.60;;;4.00;99.90;;;;;;4974844;28;20498;-65
2020/12/27 05:08:59;;;;;;;5.23;4.83;;;4.00;99.90;;;;;;4975032;28;20455;-65
2020/12/27 05:11:27;;;;;;;5.20;4.80;;;4.00;99.90;;;;;;4974229;28;20501;-65
2020/12/27 05:13:54;;;;;;;5.17;4.67;;;4.00;99.90;;;;;;4974801;28;20455;-65
2020/12/27 05:16:21;;;;;;;5.87;5.40;;;4.00;99.90;;;;;;4974278;28;20487;-65
2020/12/27 05:18:51;;;;;;;6.07;5.57;;;4.00;99.90;;;;;;4974844;28;20455;-65
2020/12/27 05:21:19;;;;;;;5.57;5.17;;;3.90;99.90;;;;;;4974529;28;20455;-64
2020/12/27 05:23:45;;;;;;;6.63;5.30;;;3.90;99.90;;;;;;4974528;28;20845;-65
2020/12/27 05:26:11;;;;;;;5.77;5.27;;;3.90;99.90;;;;;;4974899;28;20448;-65
2020/12/27 05:28:38;;;;;;;4.80;4.40;;;3.90;99.90;;;;;;4974798;28;20959;-65
2020/12/27 05:31:11;;;;;;;6.20;5.70;;;4.00;99.90;;;;;;4974453;28;20951;-65
2020/12/27 05:33:40;;;;;;;5.17;4.77;;;3.80;99.90;;;;;;4974270;28;20461;-65
2020/12/27 05:36:06;;;;;;;6.30;5.80;;;3.80;99.90;;;;;;4974821;28;20494;-65
2020/12/27 05:38:33;;;;;;;5.67;4.70;;;3.70;99.90;;;;;;4974510;28;20459;-65
2020/12/27 05:41:01;;;;;;;5.50;5.20;;;3.70;99.90;;;;;;4974844;28;20460;-65
2020/12/27 05:43:27;;;;;;;5.73;5.33;;;3.70;99.90;;;;;;4974352;28;20832;-65
2020/12/27 05:45:56;;;;;;;4.93;4.63;;;3.70;99.90;;;;;;4974550;28;20443;-65
2020/12/27 05:48:22;;;;;;;5.53;5.17;;;3.70;99.90;;;;;;4974097;28;20462;-65
2020/12/27 05:50:51;;;;;;;5.43;5.03;;;3.70;99.90;;;;;;4974135;28;20829;-65
2020/12/27 05:53:18;;;;;;;5.90;5.50;;;3.70;99.90;;;;;;4973649;28;20533;-65
2020/12/27 05:55:46;;;;;;;5.80;5.40;;;3.70;99.90;;;;;;4973735;28;20491;-65
2020/12/27 05:58:18;;;;;;;6.50;5.93;;;3.60;99.90;;;;;;4974049;28;20455;-65
2020/12/27 06:00:45;;;;;;;6.03;5.53;;;3.60;99.90;;;;;;4974030;28;20502;-64
2020/12/27 06:03:19;;;;;;;5.67;5.30;;;3.60;99.90;;;;;;4973928;28;20475;-65
2020/12/27 06:06:16;;;;;;;5.83;5.43;;;3.50;99.90;;;;;;4973742;28;20501;-65
2020/12/27 06:09:09;;;;;;;5.60;5.20;;;3.50;99.90;;;;;;4973950;28;20549;-65
2020/12/27 06:11:48;;;;;;;5.80;5.40;;;3.50;99.90;;;;;;4962365;28;20853;-65
2020/12/27 06:14:39;;;;;;;5.80;5.40;;;3.50;99.90;;;;;;4972866;28;20514;-65
2020/12/27 06:17:14;;;;;;;6.10;5.70;;;3.50;99.90;;;;;;4973524;28;20819;-65
2020/12/27 06:19:57;;;;;;;5.93;5.53;;;3.50;99.90;;;;;;4973650;28;20455;-64
2020/12/27 06:22:29;;;;;;;5.87;5.47;;;3.50;99.90;;;;;;4973620;28;20475;-65
2020/12/27 06:24:58;;;;;;;5.60;5.20;;;3.50;99.90;;;;;;4973788;28;20807;-65
2020/12/27 06:27:27;;;;;;;5.27;4.97;;;3.50;99.90;;;;;;4973180;28;20510;-64
2020/12/27 06:29:58;;;;;;;5.83;5.43;;;3.50;99.90;;;;;;4973451;28;20475;-64
2020/12/27 06:32:28;;;;;;;5.60;5.20;;;3.50;99.90;;;;;;4973397;28;20490;-65
2020/12/27 06:34:54;;;;;;;5.50;5.10;;;3.50;99.90;;;;;;4973604;28;21056;-65
2020/12/27 06:37:20;;;;;;;6.07;5.57;;;3.50;99.90;;;;;;4974036;28;20478;-65
2020/12/27 06:39:47;;;;;;;6.20;5.80;;;3.60;99.90;;;;;;4974237;28;20506;-65
2020/12/27 06:42:15;;;;;;;4.60;4.30;;;3.60;99.90;;;;;;4973561;28;20530;-65
2020/12/27 06:44:43;;;;;;;5.37;5.00;;;3.60;99.90;;;;;;4973015;28;20447;-65
2020/12/27 06:47:09;;;;;;;5.70;5.20;;;3.60;99.90;;;;;;4973536;28;20455;-65
2020/12/27 06:49:36;;;;;;;5.33;4.90;;;3.60;99.90;;;;;;4973325;28;20459;-65
2020/12/27 06:52:19;;;;;;;5.67;5.20;;;3.60;99.90;;;;;;4973058;28;20471;-64
2020/12/27 06:54:48;;;;;;;5.13;4.73;;;3.60;99.90;;;;;;4972887;28;20475;-65
2020/12/27 06:57:40;;;;;;;5.77;5.13;;;3.60;99.90;;;;;;4973189;28;20463;-65
2020/12/27 07:00:19;;;;;;;5.77;5.37;;;3.60;99.90;;;;;;4973292;28;20458;-64
2020/12/27 07:02:46;;;;;;;5.57;5.07;;;3.70;99.90;;;;;;4973221;28;20477;-65
2020/12/27 07:05:29;;;;;;;5.00;4.70;;;3.70;99.90;;;;;;4972241;28;20819;-65
2020/12/27 07:07:56;;;;;;;5.27;4.87;;;3.60;99.90;;;;;;4972519;28;20459;-64
2020/12/27 07:10:26;;;;;;;5.17;4.87;;;3.70;99.90;;;;;;4973083;28;20447;-64
2020/12/27 07:13:01;;;;;;;4.47;4.17;;;3.70;99.90;;;;;;4972845;28;20471;-65
2020/12/27 07:15:28;;;;;;;4.47;4.17;;;3.70;99.90;;;;;;4973018;28;20932;-65
2020/12/27 07:17:55;;;;;;;4.50;4.20;;;3.80;99.90;;;;;;4973486;28;20517;-64
2020/12/27 07:20:23;;;;;;;5.17;4.80;;;3.80;99.90;;;;;;4973544;28;20522;-65
2020/12/27 07:22:54;;;;;;;4.30;4.00;;;3.80;99.90;;;;;;4972764;28;20991;-65
2020/12/27 07:25:24;;;;;;;5.50;4.43;;;3.70;99.90;;;;;;4973554;28;20462;-64
2020/12/27 07:27:50;;;;;;;4.37;4.17;;;3.70;99.90;;;;;;4973007;28;20804;-63
2020/12/27 07:30:17;;;;;;;4.27;4.00;;;3.70;99.90;;;;;;4973544;28;20459;-64
2020/12/27 07:32:44;;;;;;;4.53;4.23;;;3.70;99.90;;;;;;4981334;28;20994;-64
2020/12/27 07:35:11;;;;;;;4.53;4.20;;;3.70;99.90;;;;;;4982394;28;20510;-64
2020/12/27 07:37:43;;;;;;;4.50;4.20;;;3.70;99.90;;;;;;4974172;28;20454;-64
2020/12/27 07:40:11;;;;;;;5.13;4.77;;;3.70;99.90;;;;;;4976817;28;20459;-64
2020/12/27 07:42:38;;;;;;;4.60;4.30;;;3.70;99.90;;;;;;4977066;28;20517;-64
2020/12/27 07:45:06;;;;;;;4.30;4.00;;;3.70;99.90;;;;;;4976114;28;20958;-63
2020/12/27 07:47:37;;;;;;;4.30;4.00;;;3.70;99.90;;;;;;4976720;28;20443;-64
2020/12/27 07:50:09;;;;;;;4.47;4.17;;;3.70;99.90;;;;;;4977541;28;20461;-64
2020/12/27 07:52:43;;;;;;;4.53;4.23;;;3.70;99.90;;;;;;4978262;28;20471;-65
2020/12/27 07:55:09;;;;;;;4.20;4.00;;;3.70;99.90;;;;;;4980030;28;20483;-65
2020/12/27 07:57:36;;;;;;;4.13;3.87;;;3.70;99.90;;;;;;4985401;28;20428;-64
2020/12/27 08:00:05;;;;;;;4.50;4.20;;;3.70;99.90;;;;;;4995650;28;20513;-64
2020/12/27 08:02:32;;;;;;;4.00;3.80;;;3.70;99.90;;;;;;4990633;28;20813;-65
2020/12/27 08:05:00;;;;;;;4.00;3.70;;;3.70;99.90;;;;;;4975634;28;20451;-65
2020/12/27 08:07:27;;;;;;;4.47;3.80;;;3.70;99.90;;;;;;4976505;28;20542;-64
2020/12/27 08:09:53;;;;;;;4.20;3.90;;;3.70;99.90;;;;;;4976342;28;20446;-65
2020/12/27 08:12:20;;;;;;;4.13;3.73;;;3.70;99.90;;;;;;4976406;28;20499;-64
2020/12/27 08:14:46;;;;;;;4.07;3.77;;;3.70;99.90;;;;;;4976136;28;20493;-65
2020/12/27 08:17:16;;;;;;;4.20;3.90;;;3.70;99.90;;;;;;4976563;28;20447;-65
2020/12/27 08:19:42;;;;;;;3.53;3.23;;;3.70;99.90;;;;;;4976058;28;20451;-65
2020/12/27 08:22:09;;;;;;;4.10;3.80;;;3.70;99.90;;;;;;4976312;28;20490;-65
2020/12/27 08:24:35;;;;;;;4.80;4.40;;;3.70;99.90;;;;;;4975668;28;20460;-64
2020/12/27 08:27:01;;;;;;;4.33;3.93;;;3.80;99.90;;;;;;4975876;28;20509;-64
2020/12/27 08:29:28;;;;;;;4.00;3.80;;;3.70;99.90;;;;;;4975684;28;20451;-65
2020/12/27 08:32:03;;;;;;;5.03;2.50;;;3.70;99.90;;;;;;4974973;28;20479;-67
2020/12/27 08:34:32;;;;;;;4.60;2.73;;;10.50;99.90;;;;;;4974343;28;20493;-66
2020/12/27 08:36:59;;;;;;;6.50;2.27;;;13.60;99.90;;;;;;4975299;28;20463;-66
2020/12/27 08:39:33;;;;;;;6.40;2.27;;;16.30;99.90;;;;;;4974991;28;20448;-66
2020/12/27 08:42:04;;;;;;;2.73;1.90;;;16.80;99.90;;;;;;4974710;28;20486;-66
2020/12/27 08:44:43;;;;;;;2.73;1.57;;;17.60;99.90;;;;;;4974866;28;20451;-66
2020/12/27 08:47:28;;;;;;;2.43;1.97;;;18.50;99.90;;;;;;4975549;28;20459;-66
2020/12/27 08:50:05;;;;;;;2.70;1.30;;;18.60;99.90;;;;;;4972556;28;20559;-68
2020/12/27 08:52:32;;;;;;;3.57;1.50;;;18.50;99.90;;;;;;4975184;28;20471;-66
2020/12/27 08:55:01;;;;;;;1.70;1.60;;;18.50;99.90;;;;;;4974627;28;20486;-66
2020/12/27 08:57:28;;;;;;;2.13;1.30;;;19.10;99.90;;;;;;4975095;28;20467;-66
2020/12/27 08:59:59;;;;;;;3.30;1.60;;;18.80;99.90;;;;;;4974454;28;20585;-67
2020/12/27 09:02:25;;;;;;;2.03;1.57;;;19.00;99.90;;;;;;4975060;28;20479;-64
2020/12/27 09:05:01;;;;;;;2.83;1.27;;;19.40;99.90;;;;;;4974961;28;20448;-66
2020/12/27 09:07:32;;;;;;;2.23;1.40;;;19.40;99.90;;;;;;4975008;28;20466;-67
2020/12/27 09:10:04;;;;;;;1.37;1.27;;;19.40;99.90;;;;;;4974785;28;20892;-65
2020/12/27 09:12:30;;;;;;;1.10;0.90;;;19.60;99.90;;;;;;4974412;28;20475;-65
2020/12/27 09:14:57;;;;;;;1.60;1.50;;;19.60;99.90;;;;;;4975158;28;20832;-65
2020/12/27 09:17:27;;;;;;;2.63;2.43;;;19.20;99.90;;;;;;4974015;28;20471;-66
2020/12/27 09:19:56;;;;;;;3.80;3.60;;;8.10;99.90;;;;;;4975599;28;20450;-66
2020/12/27 09:22:23;;;;;;;3.47;3.17;;;5.30;99.90;;;;;;4974723;28;20475;-66
2020/12/27 09:25:05;;;;;;;4.07;3.77;;;4.70;99.90;;;;;;4974474;28;20534;-66
2020/12/27 09:27:31;;;;;;;4.50;4.20;;;4.30;99.90;;;;;;4975493;28;21014;-70
2020/12/27 09:30:00;;;;;;;4.40;4.10;;;4.20;99.90;;;;;;4975390;28;20466;-66
2020/12/27 09:32:32;;;;;;;4.23;3.93;;;4.20;99.90;;;;;;4974831;28;21014;-67
2020/12/27 09:34:59;;;;;;;4.40;4.10;;;4.20;99.90;;;;;;4970769;28;20498;-66
2020/12/27 09:37:32;;;;;;;4.00;3.80;;;4.20;99.90;;;;;;4973002;28;20506;-66
2020/12/27 09:39:58;;;;;;;3.87;3.57;;;4.20;99.90;;;;;;4974187;28;20459;-66
2020/12/27 09:42:26;;;;;;;4.17;3.87;;;4.20;99.90;;;;;;4963524;28;20476;-65
2020/12/27 09:44:53;;;;;;;4.00;3.70;;;4.20;99.90;;;;;;4972419;28;20455;-65
2020/12/27 09:47:24;;;;;;;4.40;4.10;;;4.30;99.90;;;;;;4974245;28;20893;-65
2020/12/27 09:50:05;;;;;;;4.40;4.10;;;4.20;99.90;;;;;;4973111;28;20465;-65
2020/12/27 09:52:43;;;;;;;3.53;3.33;;;4.30;99.90;;;;;;4973539;28;20467;-63
2020/12/27 09:55:09;;;;;;;4.20;4.00;;;4.30;99.90;;;;;;4972988;28;20573;-63
2020/12/27 09:57:35;;;;;;;3.67;3.47;;;4.30;99.90;;;;;;4973180;28;20989;-66
2020/12/27 10:00:03;;;;;;;4.03;3.73;;;4.30;99.90;;;;;;4958223;28;20458;-67
2020/12/27 10:02:29;;;;;;;3.70;3.40;;;4.30;99.90;;;;;;4969795;28;20502;-67
2020/12/27 10:04:55;;;;;;;3.60;3.30;;;4.30;99.90;;;;;;4973027;28;20456;-67
2020/12/27 10:07:22;;;;;;;3.57;3.37;;;4.30;99.90;;;;;;4972867;28;20467;-67
2020/12/27 10:09:49;;;;;;;3.43;3.23;;;4.30;99.90;;;;;;4973510;28;20459;-70
2020/12/27 10:12:15;;;;;;;3.93;3.60;;;4.40;99.90;;;;;;4973501;28;20488;-66
2020/12/27 10:14:42;;;;;;;3.53;3.30;;;4.40;99.90;;;;;;4972358;28;20948;-67
2020/12/27 10:17:09;;;;;;;3.50;3.17;;;4.40;99.90;;;;;;4972935;28;20799;-66
2020/12/27 10:19:36;;;;;;;4.00;3.70;;;4.40;99.90;;;;;;4972956;28;20878;-67
2020/12/27 10:22:03;;;;;;;4.20;3.90;;;4.40;99.90;;;;;;4972113;28;20877;-66
2020/12/27 10:24:31;;;;;;;4.20;3.20;;;4.40;99.90;;;;;;4972775;28;20974;-66
2020/12/27 10:26:59;;;;;;;3.80;3.50;;;4.50;99.90;;;;;;4973463;28;20983;-68
2020/12/27 10:29:25;;;;;;;3.40;3.20;;;4.50;99.90;;;;;;4971733;28;20451;-66
2020/12/27 10:31:53;;;;;;;3.30;3.10;;;4.60;99.90;;;;;;4973162;28;20487;-66
2020/12/27 10:34:19;;;;;;;3.40;3.20;;;4.60;99.90;;;;;;4973217;28;20474;-66
2020/12/27 10:36:46;;;;;;;3.30;3.10;;;4.60;99.90;;;;;;4974332;28;20483;-70
2020/12/27 10:39:12;;;;;;;2.87;2.73;;;4.60;99.90;;;;;;4973433;28;20501;-68
2020/12/27 10:41:40;;;;;;;3.20;3.00;;;4.70;99.90;;;;;;4973750;28;20483;-69
2020/12/27 10:44:07;;;;;;;3.63;2.90;;;4.80;99.90;;;;;;4972949;28;21034;-68
2020/12/27 10:46:33;;;;;;;3.00;2.80;;;4.70;99.90;;;;;;4973837;28;20506;-70
2020/12/27 10:49:00;;;;;;;3.27;3.07;;;4.80;99.90;;;;;;4974242;28;20525;-70
2020/12/27 10:51:26;;;;;;;3.17;2.97;;;4.80;99.90;;;;;;4979074;28;20471;-68
2020/12/27 10:53:53;;;;;;;2.50;2.40;;;4.80;99.90;;;;;;4980478;28;20485;-69
2020/12/27 10:56:19;;;;;;;3.17;2.97;;;4.90;99.90;;;;;;4975678;28;20498;-70
2020/12/27 10:58:45;;;;;;;3.00;2.80;;;4.90;99.90;;;;;;4973261;28;20458;-70
2020/12/27 11:01:13;;;;;;;3.30;3.10;;;4.90;99.90;;;;;;4973421;28;20439;-70
2020/12/27 11:03:39;;;;;;;3.20;3.00;;;4.90;99.90;;;;;;4973436;28;20462;-68
2020/12/27 11:06:05;;;;;;;3.27;3.07;;;4.90;99.90;;;;;;4973556;28;20509;-69
2020/12/27 11:08:33;;;;;;;3.07;2.87;;;5.00;99.90;;;;;;4973538;28;20459;-69
2020/12/27 11:11:00;;;;;;;3.07;2.87;;;5.00;99.90;;;;;;4972650;28;20982;-70
2020/12/27 11:13:26;;;;;;;3.60;3.30;;;5.00;99.90;;;;;;4972689;28;20961;-70
2020/12/27 11:15:53;;;;;;;3.20;2.90;;;5.20;99.90;;;;;;4973561;28;20982;-68
2020/12/27 11:18:20;;;;;;;2.60;2.40;;;5.10;99.90;;;;;;4973348;28;20457;-67
2020/12/27 11:20:46;;;;;;;2.90;2.70;;;5.00;99.90;;;;;;4973002;28;20826;-68
2020/12/27 11:23:12;;;;;;;3.23;2.80;;;5.00;99.90;;;;;;4973750;28;20471;-68
2020/12/27 11:25:39;;;;;;;3.73;2.83;;;5.10;99.90;;;;;;4972219;28;20452;-68
2020/12/27 11:28:05;;;;;;;2.80;2.60;;;5.20;99.90;;;;;;4972617;28;20454;-68
2020/12/27 11:30:32;;;;;;;3.10;2.90;;;5.10;99.90;;;;;;4972376;28;20460;-67
2020/12/27 11:32:58;;;;;;;3.07;2.87;;;5.10;99.90;;;;;;4973068;28;20483;-67
2020/12/27 11:35:25;;;;;;;2.93;2.73;;;5.10;99.90;;;;;;4973199;28;20499;-68
2020/12/27 11:37:52;;;;;;;3.23;2.93;;;5.10;99.90;;;;;;4973054;28;20471;-68
2020/12/27 11:40:18;;;;;;;3.10;2.90;;;5.20;99.90;;;;;;4973090;28;20952;-69
2020/12/27 11:42:44;;;;;;;3.30;3.00;;;5.10;99.90;;;;;;4972275;28;20473;-68
2020/12/27 11:45:11;;;;;;;3.00;2.80;;;5.10;99.90;;;;;;4972271;28;20505;-68
2020/12/27 11:47:38;;;;;;;4.20;3.80;;;5.20;99.90;;;;;;4972611;28;20963;-68
2020/12/27 11:50:04;;;;;;;3.40;3.20;;;5.20;99.90;;;;;;4973248;28;20452;-67
2020/12/27 11:52:32;;;;;;;3.07;2.87;;;5.20;99.90;;;;;;4973051;28;20475;-68
2020/12/27 11:54:58;;;;;;;2.90;2.70;;;5.20;99.90;;;;;;4974030;28;20455;-68
2020/12/27 11:57:24;;;;;;;3.33;3.10;;;5.20;99.90;;;;;;4974338;28;20454;-67
2020/12/27 11:59:51;;;;;;;3.67;3.37;;;5.20;99.90;;;;;;4972886;28;20447;-68
2020/12/27 12:02:17;;;;;;;2.90;2.70;;;5.20;99.90;;;;;;4965904;28;20522;-68
2020/12/27 12:04:45;;;;;;;3.30;3.10;;;5.20;99.90;;;;;;4969644;28;20451;-70
2020/12/27 12:07:11;;;;;;;3.30;3.00;;;5.20;99.90;;;;;;4972991;28;20527;-69
2020/12/27 12:09:38;;;;;;;3.20;3.00;;;5.20;99.90;;;;;;4956322;28;20457;-69
2020/12/27 12:12:06;;;;;;;3.23;3.03;;;5.20;99.90;;;;;;4973907;28;20471;-69
2020/12/27 12:14:32;;;;;;;3.27;2.97;;;5.20;99.90;;;;;;4971854;28;20873;-68
2020/12/27 12:16:58;;;;;;;3.00;2.80;;;5.10;99.90;;;;;;4974025;28;20501;-68
2020/12/27 12:19:24;;;;;;;3.20;3.00;;;5.20;99.90;;;;;;4965185;28;20452;-68
2020/12/27 12:21:52;;;;;;;3.50;3.20;;;5.10;99.90;;;;;;4978700;28;20467;-68
2020/12/27 12:24:19;;;;;;;3.20;3.00;;;5.10;99.90;;;;;;4982254;28;20528;-68
2020/12/27 12:26:46;;;;;;;5.23;3.90;;;5.00;99.90;;;;;;4991025;28;20451;-68
2020/12/27 12:29:12;;;;;;;3.07;2.87;;;5.00;99.90;;;;;;4991751;28;20511;-68
2020/12/27 12:31:39;;;;;;;3.10;2.90;;;4.90;99.90;;;;;;4975776;28;20871;-67
2020/12/27 12:34:06;;;;;;;3.53;3.10;;;4.80;99.90;;;;;;4975930;28;20550;-68
2020/12/27 12:36:33;;;;;;;3.40;3.20;;;4.70;99.90;;;;;;4976308;28;21041;-67
2020/12/27 12:38:59;;;;;;;3.47;3.17;;;4.50;99.90;;;;;;4976712;28;20455;-68
2020/12/27 12:41:26;;;;;;;3.77;3.47;;;4.40;99.90;;;;;;4977225;28;20477;-68
2020/12/27 12:43:54;;;;;;;3.90;3.60;;;4.30;99.90;;;;;;4976117;28;20535;-68
2020/12/27 12:46:22;;;;;;;4.20;3.90;;;4.20;99.90;;;;;;4976791;28;20451;-68
2020/12/27 12:48:49;;;;;;;3.50;3.30;;;4.20;99.90;;;;;;4986645;28;20463;-68
2020/12/27 12:51:15;;;;;;;4.00;3.70;;;4.10;99.90;;;;;;4988377;28;20559;-69
2020/12/27 12:53:42;;;;;;;4.33;4.03;;;4.10;99.90;;;;;;4988802;28;20460;-68
2020/12/27 12:56:10;;;;;;;4.10;3.70;;;4.10;99.90;;;;;;4991604;28;20476;-68
2020/12/27 12:58:36;;;;;;;4.10;3.80;;;4.00;99.90;;;;;;4991514;28;20455;-69